This is the latest recevied weather packets stored in our database for station/object KC3JUG-13. If no packets are shown the sender has not sent any weather packets the latest 1 day(s).
| Time | Temp. | Humidity | Pressure | Rain* | Wind** | Luminosity | Snow |
|---|---|---|---|---|---|---|---|
| 1836274507 | 18.89° C | 70% | 1021.1 hPa | 0 mm | 0.45 m/s, 120° | - | - |
| 1836274477 | 19.44° C | 68% | 1021 hPa | 0 mm | 0.45 m/s, 120° | - | - |
| 1778048557 | 18.89° C | 69% | 1011 hPa | 0 mm | 1.34 m/s, 203° | - | - |
| 1778047777 | 18.89° C | 69% | 1011.1 hPa | 0 mm | 1.34 m/s, 197° | - | - |
| 1778046997 | 18.89° C | 68% | 1011 hPa | 0 mm | 1.34 m/s, 207° | - | - |
| 1778046217 | 18.89° C | 68% | 1011.2 hPa | 0 mm | 1.34 m/s, 213° | - | - |
| 1778045437 | 18.89° C | 67% | 1011.3 hPa | 0 mm | 0.89 m/s, 204° | - | - |
| 1778044657 | 18.89° C | 67% | 1011.3 hPa | 0 mm | 0.89 m/s, 215° | - | - |
| 1778043877 | 18.89° C | 66% | 1011.4 hPa | 0 mm | 1.34 m/s, 267° | - | - |
| 1778043097 | 18.89° C | 66% | 1011.4 hPa | 0 mm | 1.34 m/s, 212° | - | - |
| 1778042317 | 18.89° C | 66% | 1011.4 hPa | 0 mm | 1.34 m/s, 248° | - | - |
| 1778041537 | 18.89° C | 65% | 1011.5 hPa | 0 mm | 0.89 m/s, 208° | - | - |
| 1778040757 | 18.89° C | 66% | 1011.5 hPa | 0 mm | 1.34 m/s, 194° | - | - |
| 1778039977 | 18.89° C | 65% | 1011.6 hPa | 0 mm | 1.34 m/s, 221° | - | - |
| 1778039197 | 18.89° C | 66% | 1011.6 hPa | 0 mm | 1.34 m/s, 215° | - | - |
| 1778038417 | 18.89° C | 65% | 1011.5 hPa | 0 mm | 1.34 m/s, 201° | - | - |
| 1778037637 | 18.89° C | 65% | 1011.6 hPa | 0 mm | 0.89 m/s, 209° | - | - |
| 1778036857 | 19.44° C | 63% | 1011.4 hPa | 0 mm | 0.89 m/s, 207° | - | - |
| 1778036077 | 19.44° C | 63% | 1011.6 hPa | 0 mm | 0.89 m/s, 242° | - | - |
| 1778035297 | 19.44° C | 62% | 1011.5 hPa | 0 mm | 0.89 m/s, 212° | - | - |
| 1778034517 | 20° C | 62% | 1011.5 hPa | 0 mm | 0.89 m/s, 207° | - | - |
| 1778033737 | 20° C | 62% | 1011.7 hPa | 0 mm | 0.89 m/s, 207° | - | - |
| 1778032957 | 20° C | 61% | 1011.7 hPa | 0 mm | 0.89 m/s, 216° | - | - |
| 1778032177 | 20.56° C | 60% | 1011.6 hPa | 0 mm | 0.89 m/s, 216° | - | - |
| 1778031397 | 20.56° C | 59% | 1011.2 hPa | 0 mm | 0.89 m/s, 216° | - | - |
* Rain latest hour (hover to see other rain measurements)
** Current wind speed in m/s (hover to see current wind gust speed)